Terminal Aerodrome Forecast
Issued by NWS Twin Cities, MN

Home | Current Version | Previous Version | Text Only | Print | Product List | Glossary Off
Versions: 1 2 3 4 5 6 7 8 9 10 11 12 13 14

000
FTUS43 KMPX 282300
TAFSTC
TAF
KSTC 282338Z 2900/2924 32008KT P6SM SCT060 BKN080
     FM290130 31002KT P6SM FEW080
     FM291500 32009KT P6SM SCT050=

USA.gov is the U.S. government's official web portal to all federal, state and local government web resources and services.